Fort Monroe, Virginia
Current Conditions -  °F | °C
As of 3:59 AM on Thursday 27 Nov 2014 (Local Time) from KNGU Reporting Station
Overcast Overcast  
Wind Chill: 38°   Ceiling: 10000
Heat Index: 41°   Visibility: 10mi
Dew Point: 36°   Wind: 5mph
Humidity: 82%   Direction: 230°SW
Pressure: 30.07"   Gusts: NA
Location:  37.01°N, 76.31°W
Report Text: KNGU 270859Z AUTO 23004KT 10SM SCT045 OVC100 05/02 A3007 RMK AO2 SLP181 T00500022 55000
Loading
Personal Weather Stations






























Interactive Weather Map New forecast layout! Learn more

10-Day Weather Forecast

Advertisements
Track Severe Weather on mobile